createdAt,value
2022-09-28T00:09:52.384Z,16.56
2022-09-28T00:24:54.264Z,16.58
2022-09-28T00:39:56.038Z,16.61
2022-09-28T00:55:01.480Z,16.63
2022-09-28T01:10:04.540Z,16.68
2022-09-28T01:25:39.906Z,16.73
2022-09-28T01:40:42.054Z,16.69
2022-09-28T01:55:48.298Z,16.64
2022-09-28T02:11:01.578Z,16.61
2022-09-28T02:26:08.999Z,16.61
2022-09-28T02:41:48.120Z,16.65
2022-09-28T02:56:56.401Z,16.64
2022-09-28T03:12:06.800Z,16.56
2022-09-28T03:27:08.681Z,16.54
2022-09-28T03:42:10.463Z,16.49
2022-09-28T03:57:12.328Z,16.50
2022-09-28T04:12:14.414Z,16.51
2022-09-28T04:27:34.686Z,16.47
2022-09-28T04:42:36.958Z,16.53
2022-09-28T04:57:38.940Z,16.63
2022-09-28T05:12:40.780Z,16.84
2022-09-28T05:27:42.552Z,16.92
2022-09-28T05:42:44.799Z,17.15
2022-09-28T05:57:46.677Z,17.43
2022-09-28T06:12:52.689Z,17.68
2022-09-28T06:28:03.002Z,17.68
2022-09-28T06:43:15.310Z,17.69
2022-09-28T06:58:19.870Z,17.61
2022-09-28T07:13:46.763Z,17.76
2022-09-28T07:28:45.043Z,17.76
2022-09-28T07:43:46.872Z,17.56
2022-09-28T07:58:49.981Z,17.36
2022-09-28T08:13:55.561Z,17.39
2022-09-28T08:28:57.620Z,17.46
2022-09-28T08:44:10.471Z,17.71
2022-09-28T08:59:17.335Z,18.03
2022-09-28T09:14:56.748Z,18.67
2022-09-28T09:30:22.107Z,20.51
2022-09-28T09:45:49.323Z,21.30
2022-09-28T10:00:54.521Z,21.89
2022-09-28T10:15:56.466Z,22.53
2022-09-28T10:30:58.754Z,22.60
2022-09-28T10:46:04.992Z,21.16
2022-09-28T11:01:11.775Z,20.46
2022-09-28T11:16:40.081Z,20.00
2022-09-28T11:31:44.183Z,20.23
2022-09-28T11:46:45.909Z,20.69
2022-09-28T12:01:56.899Z,20.51
2022-09-28T12:17:08.458Z,20.14
2022-09-28T12:32:29.239Z,20.00
2022-09-28T12:47:54.715Z,20.08
2022-09-28T13:03:48.299Z,20.25
2022-09-28T13:19:01.622Z,20.47
2022-09-28T13:34:04.669Z,20.22
2022-09-28T13:49:16.784Z,20.17
2022-09-28T14:04:23.067Z,20.16
2022-09-28T14:19:31.517Z,20.08
2022-09-28T14:34:45.911Z,20.03
2022-09-28T14:49:48.404Z,19.79
2022-09-28T15:04:54.641Z,19.64
2022-09-28T15:20:25.446Z,19.41
2022-09-28T15:35:28.209Z,19.06
2022-09-28T15:50:31.858Z,18.74
2022-09-28T16:06:08.431Z,18.69
2022-09-28T16:21:42.841Z,18.70
2022-09-28T16:36:47.392Z,18.62
2022-09-28T16:51:49.349Z,18.37
2022-09-28T17:06:54.481Z,18.30
2022-09-28T17:21:56.270Z,18.21
2022-09-28T17:36:58.069Z,18.33
2022-09-28T17:52:00.055Z,18.33
2022-09-28T18:07:02.231Z,18.27
2022-09-28T18:22:04.014Z,17.94
2022-09-28T18:37:06.204Z,17.65
2022-09-28T18:52:08.086Z,17.56
2022-09-28T19:07:10.321Z,17.39
2022-09-28T19:22:12.697Z,17.23
2022-09-28T19:37:14.627Z,17.00
2022-09-28T19:52:17.343Z,16.79
2022-09-28T20:07:19.551Z,16.71
2022-09-28T20:22:21.422Z,16.69
2022-09-28T20:37:26.722Z,16.64
2022-09-28T20:52:28.578Z,16.36
2022-09-28T21:07:30.639Z,16.13
2022-09-28T21:22:32.450Z,15.98
2022-09-28T21:37:34.234Z,15.88
2022-09-28T21:52:36.402Z,15.87
2022-09-28T22:07:39.820Z,15.80
2022-09-28T22:22:41.618Z,15.72
2022-09-28T22:37:43.452Z,15.68
2022-09-28T22:52:45.246Z,15.65
2022-09-28T23:07:47.762Z,15.55
2022-09-28T23:22:50.045Z,15.47
2022-09-28T23:37:51.928Z,15.43
2022-09-28T23:52:53.889Z,15.33
